Česky Dansk Deutsch English Español Suomi Français Magyar Italiano Nederlands norsk Polski Português svenska Türkçe

 

Het Weer

Skelleftea Airport (Zweden)

15:50, 2 augustus 2016 (GMT)

NWNNE
WE
SWSSE
Home            
Skelleftea Airport Umea Flygplats Lulea / Kallax Lycksele Kruunupyy Vidsel Gunnarn Ornskoldsvik Airport Vaasa Hailuoto Kauhava Oulu Kemi Ilmajoki Jokkmokk Seinajoki-Ilmajok Kramfors Flygplats Pello Ahtari Gallivare Pudasjarvi Viitasaari Sundsvall-Harnosand Flygplats

Om een weerknop op uw website of weblog te plaatsen, copieer onderstaande code en plak die in uw pagina. In het eerste vakje staat HTML-code, in het tweede vakje UBB-code.


Add to Google

Details

Wind speed:2 bf, 6 kn, 3.1 m/s, 6.9 miles/h, 11.1 km/h
Wind direction:S, 180°
Visibility:Greater than 10000 m, 10 km, 32800 ft, 6.2 miles
Clouds:Ein wenig bewölkt at 9600 ft, 2926 m
Durchbrochene Bewölkung at 13000 ft, 3962 m
Temperature:16°C, 61°F
Dew-point:12°C, 54°F
Atmospheric pressure:1004 hPa, 753.1 mmHg, 29.65 inHg, 0.991 atm
Relative humidity:77.1 %
METAR:ESNS 021550Z AUTO 18006KT 9999 FEW096 BKN130 16/12 Q1004

Snelkoppelingen

Actuele weersinformatie van de hele wereld. Voeg locaties toe met het plus (+) symbool. Deze snelkoppelingen kunnen worden toegevoegd aan Google.

Lid van de Technetium groep

website free tracking
StatCounter NetStat W3C Validator

06-12-2019 09:10:31
astro.technetium.be money.technetium.be phote.technetium.be tafeltennistafel.technetium.be www.ligfiets.net